sensor_id;sensor_type;location;lat;lon;timestamp;P1;durP1;ratioP1;P2;durP2;ratioP2
19887;SDS011;10106;51.332;12.336;2022-12-24T00:00:30;2.47;;;2.00;;
19887;SDS011;10106;51.332;12.336;2022-12-24T00:02:56;5.03;;;2.83;;
19887;SDS011;10106;51.332;12.336;2022-12-24T00:05:22;2.60;;;1.97;;
19887;SDS011;10106;51.332;12.336;2022-12-24T00:07:47;2.70;;;2.10;;
19887;SDS011;10106;51.332;12.336;2022-12-24T00:10:13;5.47;;;2.63;;
19887;SDS011;10106;51.332;12.336;2022-12-24T00:12:38;8.00;;;2.67;;
19887;SDS011;10106;51.332;12.336;2022-12-24T00:15:04;2.73;;;2.10;;
19887;SDS011;10106;51.332;12.336;2022-12-24T00:17:31;8.80;;;2.60;;
19887;SDS011;10106;51.332;12.336;2022-12-24T00:19:57;2.27;;;1.80;;
19887;SDS011;10106;51.332;12.336;2022-12-24T00:22:23;3.23;;;2.40;;
19887;SDS011;10106;51.332;12.336;2022-12-24T00:24:48;4.57;;;2.50;;
19887;SDS011;10106;51.332;12.336;2022-12-24T00:27:14;4.03;;;3.30;;
19887;SDS011;10106;51.332;12.336;2022-12-24T00:29:40;3.00;;;2.40;;
19887;SDS011;10106;51.332;12.336;2022-12-24T00:32:06;7.50;;;2.20;;
19887;SDS011;10106;51.332;12.336;2022-12-24T00:34:34;12.30;;;2.17;;
19887;SDS011;10106;51.332;12.336;2022-12-24T00:37:01;5.47;;;2.40;;
19887;SDS011;10106;51.332;12.336;2022-12-24T00:39:27;3.53;;;2.63;;
19887;SDS011;10106;51.332;12.336;2022-12-24T00:41:53;8.03;;;2.87;;
19887;SDS011;10106;51.332;12.336;2022-12-24T00:44:18;9.03;;;2.13;;
19887;SDS011;10106;51.332;12.336;2022-12-24T00:46:44;6.77;;;3.00;;
19887;SDS011;10106;51.332;12.336;2022-12-24T00:49:10;17.57;;;2.83;;
19887;SDS011;10106;51.332;12.336;2022-12-24T00:51:37;7.87;;;2.80;;
19887;SDS011;10106;51.332;12.336;2022-12-24T00:54:03;7.90;;;3.23;;
19887;SDS011;10106;51.332;12.336;2022-12-24T00:56:29;9.27;;;3.70;;
19887;SDS011;10106;51.332;12.336;2022-12-24T00:58:55;4.23;;;1.97;;
19887;SDS011;10106;51.332;12.336;2022-12-24T01:01:21;8.97;;;2.83;;
19887;SDS011;10106;51.332;12.336;2022-12-24T01:03:47;9.60;;;2.27;;
19887;SDS011;10106;51.332;12.336;2022-12-24T01:06:17;15.50;;;3.80;;
19887;SDS011;10106;51.332;12.336;2022-12-24T01:08:44;5.60;;;2.67;;
19887;SDS011;10106;51.332;12.336;2022-12-24T01:11:11;7.43;;;2.67;;
19887;SDS011;10106;51.332;12.336;2022-12-24T01:13:37;8.20;;;3.23;;
19887;SDS011;10106;51.332;12.336;2022-12-24T01:16:10;4.53;;;2.47;;
19887;SDS011;10106;51.332;12.336;2022-12-24T01:18:42;3.60;;;2.10;;
19887;SDS011;10106;51.332;12.336;2022-12-24T01:21:07;8.50;;;2.17;;
19887;SDS011;10106;51.332;12.336;2022-12-24T01:23:33;12.73;;;3.20;;
19887;SDS011;10106;51.332;12.336;2022-12-24T01:26:02;3.87;;;2.73;;
19887;SDS011;10106;51.332;12.336;2022-12-24T01:28:29;16.27;;;3.10;;
19887;SDS011;10106;51.332;12.336;2022-12-24T01:30:56;8.03;;;2.53;;
19887;SDS011;10106;51.332;12.336;2022-12-24T01:33:21;4.47;;;2.40;;
19887;SDS011;10106;51.332;12.336;2022-12-24T01:35:47;2.63;;;2.10;;
19887;SDS011;10106;51.332;12.336;2022-12-24T01:38:13;7.30;;;2.17;;
19887;SDS011;10106;51.332;12.336;2022-12-24T01:40:39;4.67;;;2.37;;
19887;SDS011;10106;51.332;12.336;2022-12-24T01:43:25;8.33;;;2.10;;
19887;SDS011;10106;51.332;12.336;2022-12-24T01:54:04;4.53;;;2.47;;
19887;SDS011;10106;51.332;12.336;2022-12-24T01:56:36;9.30;;;2.67;;
19887;SDS011;10106;51.332;12.336;2022-12-24T01:59:08;7.80;;;2.33;;
19887;SDS011;10106;51.332;12.336;2022-12-24T02:01:37;472.88;;;433.48;;
19887;SDS011;10106;51.332;12.336;2022-12-24T02:04:04;291.60;;;261.10;;
19887;SDS011;10106;51.332;12.336;2022-12-24T02:06:37;266.00;;;215.97;;
19887;SDS011;10106;51.332;12.336;2022-12-24T02:09:03;368.13;;;203.27;;
19887;SDS011;10106;51.332;12.336;2022-12-24T02:11:28;393.93;;;197.63;;
19887;SDS011;10106;51.332;12.336;2022-12-24T02:13:56;479.47;;;196.33;;
19887;SDS011;10106;51.332;12.336;2022-12-24T02:16:45;641.57;;;212.47;;
19887;SDS011;10106;51.332;12.336;2022-12-24T02:22:01;6.43;;;2.40;;
19887;SDS011;10106;51.332;12.336;2022-12-24T02:27:41;6.67;;;2.57;;
19887;SDS011;10106;51.332;12.336;2022-12-24T02:30:23;5.57;;;2.17;;
19887;SDS011;10106;51.332;12.336;2022-12-24T02:33:07;7.53;;;2.03;;
19887;SDS011;10106;51.332;12.336;2022-12-24T02:38:31;6.60;;;2.67;;
19887;SDS011;10106;51.332;12.336;2022-12-24T02:41:07;5.13;;;2.60;;
19887;SDS011;10106;51.332;12.336;2022-12-24T02:43:43;6.70;;;1.80;;
19887;SDS011;10106;51.332;12.336;2022-12-24T02:46:15;6.13;;;2.37;;
19887;SDS011;10106;51.332;12.336;2022-12-24T02:48:46;6.00;;;2.30;;
19887;SDS011;10106;51.332;12.336;2022-12-24T02:51:13;8.67;;;2.87;;
19887;SDS011;10106;51.332;12.336;2022-12-24T02:53:39;10.43;;;2.70;;
19887;SDS011;10106;51.332;12.336;2022-12-24T02:56:18;5.30;;;2.20;;
19887;SDS011;10106;51.332;12.336;2022-12-24T02:58:55;4.43;;;1.80;;
19887;SDS011;10106;51.332;12.336;2022-12-24T03:09:34;4.77;;;2.23;;
19887;SDS011;10106;51.332;12.336;2022-12-24T03:12:55;4.50;;;2.20;;
19887;SDS011;10106;51.332;12.336;2022-12-24T03:15:06;5.30;;;1.57;;
19887;SDS011;10106;51.332;12.336;2022-12-24T03:17:34;2.77;;;1.60;;
19887;SDS011;10106;51.332;12.336;2022-12-24T03:20:03;7.30;;;2.43;;
19887;SDS011;10106;51.332;12.336;2022-12-24T03:22:31;6.50;;;2.40;;
19887;SDS011;10106;51.332;12.336;2022-12-24T03:24:59;5.27;;;2.13;;
19887;SDS011;10106;51.332;12.336;2022-12-24T03:27:28;4.47;;;2.23;;
19887;SDS011;10106;51.332;12.336;2022-12-24T03:29:56;4.73;;;2.43;;
19887;SDS011;10106;51.332;12.336;2022-12-24T03:32:23;8.67;;;2.70;;
19887;SDS011;10106;51.332;12.336;2022-12-24T03:34:53;3.47;;;2.20;;
19887;SDS011;10106;51.332;12.336;2022-12-24T03:37:19;12.03;;;3.17;;
19887;SDS011;10106;51.332;12.336;2022-12-24T03:39:45;4.67;;;2.30;;
19887;SDS011;10106;51.332;12.336;2022-12-24T03:42:11;3.87;;;1.97;;
19887;SDS011;10106;51.332;12.336;2022-12-24T03:44:37;6.53;;;3.40;;
19887;SDS011;10106;51.332;12.336;2022-12-24T03:47:02;7.50;;;2.40;;
19887;SDS011;10106;51.332;12.336;2022-12-24T03:49:28;4.50;;;2.40;;
19887;SDS011;10106;51.332;12.336;2022-12-24T03:51:54;5.20;;;2.40;;
19887;SDS011;10106;51.332;12.336;2022-12-24T03:54:19;7.37;;;2.30;;
19887;SDS011;10106;51.332;12.336;2022-12-24T03:56:45;4.27;;;2.10;;
19887;SDS011;10106;51.332;12.336;2022-12-24T03:59:11;11.30;;;2.00;;
19887;SDS011;10106;51.332;12.336;2022-12-24T04:01:36;7.23;;;2.40;;
19887;SDS011;10106;51.332;12.336;2022-12-24T04:04:02;6.33;;;2.40;;
19887;SDS011;10106;51.332;12.336;2022-12-24T04:06:28;12.90;;;2.93;;
19887;SDS011;10106;51.332;12.336;2022-12-24T04:08:53;5.90;;;2.13;;
19887;SDS011;10106;51.332;12.336;2022-12-24T04:11:19;9.10;;;3.00;;
19887;SDS011;10106;51.332;12.336;2022-12-24T04:13:45;10.80;;;3.10;;
19887;SDS011;10106;51.332;12.336;2022-12-24T04:16:11;8.93;;;2.53;;
19887;SDS011;10106;51.332;12.336;2022-12-24T04:18:39;4.90;;;2.00;;
19887;SDS011;10106;51.332;12.336;2022-12-24T04:21:06;5.50;;;2.33;;
19887;SDS011;10106;51.332;12.336;2022-12-24T04:23:32;8.23;;;4.30;;
19887;SDS011;10106;51.332;12.336;2022-12-24T04:26:00;7.43;;;2.50;;
19887;SDS011;10106;51.332;12.336;2022-12-24T04:28:28;6.60;;;2.10;;
19887;SDS011;10106;51.332;12.336;2022-12-24T04:31:00;8.30;;;2.60;;
19887;SDS011;10106;51.332;12.336;2022-12-24T04:33:28;4.90;;;2.20;;
19887;SDS011;10106;51.332;12.336;2022-12-24T04:35:56;8.67;;;2.93;;
19887;SDS011;10106;51.332;12.336;2022-12-24T04:38:23;4.43;;;2.13;;
19887;SDS011;10106;51.332;12.336;2022-12-24T04:40:56;8.00;;;3.10;;
19887;SDS011;10106;51.332;12.336;2022-12-24T04:43:26;6.07;;;2.47;;
19887;SDS011;10106;51.332;12.336;2022-12-24T04:45:52;11.43;;;2.87;;
19887;SDS011;10106;51.332;12.336;2022-12-24T04:48:18;6.77;;;2.97;;
19887;SDS011;10106;51.332;12.336;2022-12-24T04:50:44;7.30;;;2.60;;
19887;SDS011;10106;51.332;12.336;2022-12-24T04:53:09;10.47;;;2.80;;
19887;SDS011;10106;51.332;12.336;2022-12-24T04:55:35;6.10;;;2.60;;
19887;SDS011;10106;51.332;12.336;2022-12-24T04:58:00;10.53;;;2.53;;
19887;SDS011;10106;51.332;12.336;2022-12-24T05:00:26;6.00;;;2.53;;
19887;SDS011;10106;51.332;12.336;2022-12-24T05:02:52;10.63;;;2.40;;
19887;SDS011;10106;51.332;12.336;2022-12-24T05:05:17;8.17;;;2.53;;
19887;SDS011;10106;51.332;12.336;2022-12-24T05:07:43;5.53;;;2.40;;
19887;SDS011;10106;51.332;12.336;2022-12-24T05:10:09;6.10;;;2.63;;
19887;SDS011;10106;51.332;12.336;2022-12-24T05:12:35;5.60;;;2.80;;
19887;SDS011;10106;51.332;12.336;2022-12-24T05:15:00;10.20;;;2.83;;
19887;SDS011;10106;51.332;12.336;2022-12-24T05:17:28;5.00;;;2.20;;
19887;SDS011;10106;51.332;12.336;2022-12-24T05:19:53;5.80;;;2.40;;
19887;SDS011;10106;51.332;12.336;2022-12-24T05:22:19;7.13;;;3.03;;
19887;SDS011;10106;51.332;12.336;2022-12-24T05:25:03;6.63;;;2.30;;
19887;SDS011;10106;51.332;12.336;2022-12-24T05:27:48;9.83;;;2.53;;
19887;SDS011;10106;51.332;12.336;2022-12-24T05:30:14;10.63;;;3.23;;
19887;SDS011;10106;51.332;12.336;2022-12-24T05:32:40;12.43;;;3.63;;
19887;SDS011;10106;51.332;12.336;2022-12-24T05:35:05;13.50;;;5.70;;
19887;SDS011;10106;51.332;12.336;2022-12-24T05:37:31;9.73;;;3.23;;
19887;SDS011;10106;51.332;12.336;2022-12-24T05:39:57;9.70;;;3.63;;
19887;SDS011;10106;51.332;12.336;2022-12-24T05:42:23;10.30;;;3.30;;
19887;SDS011;10106;51.332;12.336;2022-12-24T05:44:48;15.23;;;3.60;;
19887;SDS011;10106;51.332;12.336;2022-12-24T05:47:14;11.20;;;4.60;;
19887;SDS011;10106;51.332;12.336;2022-12-24T05:49:40;14.27;;;6.00;;
19887;SDS011;10106;51.332;12.336;2022-12-24T05:52:05;8.00;;;2.80;;
19887;SDS011;10106;51.332;12.336;2022-12-24T05:54:31;12.83;;;3.80;;
19887;SDS011;10106;51.332;12.336;2022-12-24T05:56:56;19.90;;;4.60;;
19887;SDS011;10106;51.332;12.336;2022-12-24T05:59:22;7.13;;;2.70;;
19887;SDS011;10106;51.332;12.336;2022-12-24T06:06:58;11.10;;;3.87;;
19887;SDS011;10106;51.332;12.336;2022-12-24T06:09:24;7.80;;;2.47;;
19887;SDS011;10106;51.332;12.336;2022-12-24T06:11:50;6.33;;;2.40;;
19887;SDS011;10106;51.332;12.336;2022-12-24T06:14:15;24.97;;;6.67;;
19887;SDS011;10106;51.332;12.336;2022-12-24T06:16:41;10.73;;;3.50;;
19887;SDS011;10106;51.332;12.336;2022-12-24T06:19:07;16.50;;;2.90;;
19887;SDS011;10106;51.332;12.336;2022-12-24T06:21:32;23.37;;;6.63;;
19887;SDS011;10106;51.332;12.336;2022-12-24T06:23:58;10.03;;;3.20;;
19887;SDS011;10106;51.332;12.336;2022-12-24T06:26:24;11.73;;;4.20;;
19887;SDS011;10106;51.332;12.336;2022-12-24T06:28:50;4.87;;;2.30;;
19887;SDS011;10106;51.332;12.336;2022-12-24T06:31:17;3.03;;;2.30;;
19887;SDS011;10106;51.332;12.336;2022-12-24T06:33:44;6.97;;;2.37;;
19887;SDS011;10106;51.332;12.336;2022-12-24T06:36:17;5.70;;;2.30;;
19887;SDS011;10106;51.332;12.336;2022-12-24T06:38:46;4.17;;;2.33;;
19887;SDS011;10106;51.332;12.336;2022-12-24T06:41:12;2.87;;;1.70;;
19887;SDS011;10106;51.332;12.336;2022-12-24T06:43:41;3.33;;;2.27;;
19887;SDS011;10106;51.332;12.336;2022-12-24T06:46:08;15.00;;;2.63;;
19887;SDS011;10106;51.332;12.336;2022-12-24T06:48:34;5.87;;;1.90;;
19887;SDS011;10106;51.332;12.336;2022-12-24T06:51:03;5.40;;;2.07;;
19887;SDS011;10106;51.332;12.336;2022-12-24T06:53:29;8.80;;;3.43;;
19887;SDS011;10106;51.332;12.336;2022-12-24T06:58:31;2.63;;;1.93;;
19887;SDS011;10106;51.332;12.336;2022-12-24T07:00:59;21.53;;;2.37;;
19887;SDS011;10106;51.332;12.336;2022-12-24T07:03:29;4.20;;;2.03;;
19887;SDS011;10106;51.332;12.336;2022-12-24T07:05:55;2.80;;;1.93;;
19887;SDS011;10106;51.332;12.336;2022-12-24T07:08:21;4.40;;;2.30;;
19887;SDS011;10106;51.332;12.336;2022-12-24T07:10:48;4.30;;;1.93;;
19887;SDS011;10106;51.332;12.336;2022-12-24T07:13:14;4.07;;;2.40;;
19887;SDS011;10106;51.332;12.336;2022-12-24T07:15:40;4.13;;;2.10;;
19887;SDS011;10106;51.332;12.336;2022-12-24T07:18:06;4.33;;;2.20;;
19887;SDS011;10106;51.332;12.336;2022-12-24T07:20:32;12.33;;;2.60;;
19887;SDS011;10106;51.332;12.336;2022-12-24T07:22:58;3.67;;;1.90;;
19887;SDS011;10106;51.332;12.336;2022-12-24T07:25:23;3.17;;;2.20;;
19887;SDS011;10106;51.332;12.336;2022-12-24T07:27:49;3.37;;;1.80;;
19887;SDS011;10106;51.332;12.336;2022-12-24T07:30:15;5.17;;;1.90;;
19887;SDS011;10106;51.332;12.336;2022-12-24T07:32:41;6.17;;;2.47;;
19887;SDS011;10106;51.332;12.336;2022-12-24T07:35:07;1.77;;;1.67;;
19887;SDS011;10106;51.332;12.336;2022-12-24T07:37:33;2.10;;;1.57;;
19887;SDS011;10106;51.332;12.336;2022-12-24T07:39:58;2.17;;;1.33;;
19887;SDS011;10106;51.332;12.336;2022-12-24T07:42:24;2.17;;;2.03;;
19887;SDS011;10106;51.332;12.336;2022-12-24T07:44:50;1.83;;;1.73;;
19887;SDS011;10106;51.332;12.336;2022-12-24T07:47:15;4.53;;;1.83;;
19887;SDS011;10106;51.332;12.336;2022-12-24T07:49:41;27.93;;;11.27;;
19887;SDS011;10106;51.332;12.336;2022-12-24T07:52:07;561.20;;;166.10;;
19887;SDS011;10106;51.332;12.336;2022-12-24T07:54:33;2.80;;;1.77;;
19887;SDS011;10106;51.332;12.336;2022-12-24T07:56:59;2.57;;;1.73;;
19887;SDS011;10106;51.332;12.336;2022-12-24T07:59:24;6.43;;;2.10;;
19887;SDS011;10106;51.332;12.336;2022-12-24T08:01:50;4.10;;;2.03;;
19887;SDS011;10106;51.332;12.336;2022-12-24T08:04:16;10.87;;;3.90;;
19887;SDS011;10106;51.332;12.336;2022-12-24T08:06:41;4.30;;;2.30;;
19887;SDS011;10106;51.332;12.336;2022-12-24T08:09:07;7.67;;;2.17;;
19887;SDS011;10106;51.332;12.336;2022-12-24T08:11:33;8.73;;;3.00;;
19887;SDS011;10106;51.332;12.336;2022-12-24T08:13:58;6.00;;;2.67;;
19887;SDS011;10106;51.332;12.336;2022-12-24T08:16:24;14.93;;;2.43;;
19887;SDS011;10106;51.332;12.336;2022-12-24T08:18:50;9.67;;;2.60;;
19887;SDS011;10106;51.332;12.336;2022-12-24T08:21:15;9.70;;;3.17;;
19887;SDS011;10106;51.332;12.336;2022-12-24T08:23:41;14.10;;;3.17;;
19887;SDS011;10106;51.332;12.336;2022-12-24T08:26:08;8.30;;;3.10;;
19887;SDS011;10106;51.332;12.336;2022-12-24T08:28:34;5.10;;;1.43;;
19887;SDS011;10106;51.332;12.336;2022-12-24T08:31:01;3.47;;;1.50;;
19887;SDS011;10106;51.332;12.336;2022-12-24T08:33:26;2.90;;;1.63;;
19887;SDS011;10106;51.332;12.336;2022-12-24T08:35:53;6.20;;;2.03;;
19887;SDS011;10106;51.332;12.336;2022-12-24T08:38:20;4.53;;;1.70;;
19887;SDS011;10106;51.332;12.336;2022-12-24T08:40:46;8.17;;;1.87;;
19887;SDS011;10106;51.332;12.336;2022-12-24T08:43:14;4.97;;;2.27;;
19887;SDS011;10106;51.332;12.336;2022-12-24T08:45:41;9.87;;;1.73;;
19887;SDS011;10106;51.332;12.336;2022-12-24T08:48:07;9.63;;;2.10;;
19887;SDS011;10106;51.332;12.336;2022-12-24T08:50:33;5.07;;;1.80;;
19887;SDS011;10106;51.332;12.336;2022-12-24T08:53:00;3.70;;;1.63;;
19887;SDS011;10106;51.332;12.336;2022-12-24T08:55:25;13.23;;;1.97;;
19887;SDS011;10106;51.332;12.336;2022-12-24T08:57:51;7.47;;;2.00;;
19887;SDS011;10106;51.332;12.336;2022-12-24T09:00:17;10.00;;;3.57;;
19887;SDS011;10106;51.332;12.336;2022-12-24T09:02:43;4.20;;;2.30;;
19887;SDS011;10106;51.332;12.336;2022-12-24T09:05:08;6.20;;;2.80;;
19887;SDS011;10106;51.332;12.336;2022-12-24T09:07:37;7.23;;;3.23;;
19887;SDS011;10106;51.332;12.336;2022-12-24T09:10:04;11.30;;;3.73;;
19887;SDS011;10106;51.332;12.336;2022-12-24T09:12:31;10.37;;;4.17;;
19887;SDS011;10106;51.332;12.336;2022-12-24T09:14:57;6.77;;;2.53;;
19887;SDS011;10106;51.332;12.336;2022-12-24T09:17:25;11.80;;;3.53;;
19887;SDS011;10106;51.332;12.336;2022-12-24T09:19:51;11.87;;;3.50;;
19887;SDS011;10106;51.332;12.336;2022-12-24T09:22:17;12.13;;;3.07;;
19887;SDS011;10106;51.332;12.336;2022-12-24T09:24:42;9.43;;;3.20;;
19887;SDS011;10106;51.332;12.336;2022-12-24T09:27:08;8.23;;;2.73;;
19887;SDS011;10106;51.332;12.336;2022-12-24T09:29:34;9.53;;;3.10;;
19887;SDS011;10106;51.332;12.336;2022-12-24T09:32:00;18.53;;;4.43;;
19887;SDS011;10106;51.332;12.336;2022-12-24T09:34:26;11.03;;;3.67;;
19887;SDS011;10106;51.332;12.336;2022-12-24T09:36:52;11.50;;;3.30;;
19887;SDS011;10106;51.332;12.336;2022-12-24T09:39:18;13.03;;;3.93;;
19887;SDS011;10106;51.332;12.336;2022-12-24T09:44:57;9.03;;;2.77;;
19887;SDS011;10106;51.332;12.336;2022-12-24T09:47:49;14.13;;;3.73;;
19887;SDS011;10106;51.332;12.336;2022-12-24T09:50:28;16.37;;;4.90;;
19887;SDS011;10106;51.332;12.336;2022-12-24T09:53:06;12.47;;;4.10;;
19887;SDS011;10106;51.332;12.336;2022-12-24T09:55:45;17.33;;;4.17;;
19887;SDS011;10106;51.332;12.336;2022-12-24T09:58:19;9.93;;;3.23;;
19887;SDS011;10106;51.332;12.336;2022-12-24T10:00:50;15.20;;;4.23;;
19887;SDS011;10106;51.332;12.336;2022-12-24T10:03:16;9.50;;;3.23;;
19887;SDS011;10106;51.332;12.336;2022-12-24T10:05:45;17.93;;;5.20;;
19887;SDS011;10106;51.332;12.336;2022-12-24T10:10:53;18.43;;;3.83;;
19887;SDS011;10106;51.332;12.336;2022-12-24T10:24:21;9.33;;;3.23;;
19887;SDS011;10106;51.332;12.336;2022-12-24T10:26:53;8.93;;;3.20;;
19887;SDS011;10106;51.332;12.336;2022-12-24T10:29:26;10.70;;;3.57;;
19887;SDS011;10106;51.332;12.336;2022-12-24T10:34:44;17.73;;;4.57;;
19887;SDS011;10106;51.332;12.336;2022-12-24T10:37:15;11.90;;;3.53;;
19887;SDS011;10106;51.332;12.336;2022-12-24T10:39:45;14.33;;;3.93;;
19887;SDS011;10106;51.332;12.336;2022-12-24T10:42:10;12.27;;;3.50;;
19887;SDS011;10106;51.332;12.336;2022-12-24T10:44:39;10.70;;;3.53;;
19887;SDS011;10106;51.332;12.336;2022-12-24T10:47:06;21.23;;;4.97;;
19887;SDS011;10106;51.332;12.336;2022-12-24T10:49:35;11.63;;;3.60;;
19887;SDS011;10106;51.332;12.336;2022-12-24T10:52:10;14.87;;;3.03;;
19887;SDS011;10106;51.332;12.336;2022-12-24T10:54:39;16.70;;;5.37;;
19887;SDS011;10106;51.332;12.336;2022-12-24T10:57:42;14.27;;;4.27;;
19887;SDS011;10106;51.332;12.336;2022-12-24T11:00:21;9.53;;;3.00;;
19887;SDS011;10106;51.332;12.336;2022-12-24T11:02:48;14.67;;;3.80;;
19887;SDS011;10106;51.332;12.336;2022-12-24T11:05:46;14.40;;;3.90;;
19887;SDS011;10106;51.332;12.336;2022-12-24T11:08:29;19.40;;;3.90;;
19887;SDS011;10106;51.332;12.336;2022-12-24T11:10:59;13.43;;;4.10;;
19887;SDS011;10106;51.332;12.336;2022-12-24T11:16:10;9.00;;;3.13;;
19887;SDS011;10106;51.332;12.336;2022-12-24T11:18:46;23.90;;;5.83;;
19887;SDS011;10106;51.332;12.336;2022-12-24T11:21:18;14.70;;;4.83;;
19887;SDS011;10106;51.332;12.336;2022-12-24T11:23:53;17.23;;;5.00;;
19887;SDS011;10106;51.332;12.336;2022-12-24T11:26:25;11.07;;;3.17;;
19887;SDS011;10106;51.332;12.336;2022-12-24T11:29:02;12.10;;;3.60;;
19887;SDS011;10106;51.332;12.336;2022-12-24T11:31:38;9.57;;;3.13;;
19887;SDS011;10106;51.332;12.336;2022-12-24T11:34:24;18.03;;;4.27;;
19887;SDS011;10106;51.332;12.336;2022-12-24T11:39:46;12.47;;;3.60;;
19887;SDS011;10106;51.332;12.336;2022-12-24T11:42:24;21.70;;;5.90;;
19887;SDS011;10106;51.332;12.336;2022-12-24T11:44:53;19.50;;;6.03;;
19887;SDS011;10106;51.332;12.336;2022-12-24T11:47:41;13.30;;;4.17;;
19887;SDS011;10106;51.332;12.336;2022-12-24T11:50:19;15.73;;;4.40;;
19887;SDS011;10106;51.332;12.336;2022-12-24T11:52:54;10.57;;;3.13;;
19887;SDS011;10106;51.332;12.336;2022-12-24T11:58:27;16.53;;;4.13;;
19887;SDS011;10106;51.332;12.336;2022-12-24T12:03:40;11.07;;;4.00;;
19887;SDS011;10106;51.332;12.336;2022-12-24T12:06:26;13.20;;;3.83;;
19887;SDS011;10106;51.332;12.336;2022-12-24T12:09:10;13.07;;;4.40;;
19887;SDS011;10106;51.332;12.336;2022-12-24T12:12:05;16.80;;;4.07;;
19887;SDS011;10106;51.332;12.336;2022-12-24T12:14:37;14.40;;;4.60;;
19887;SDS011;10106;51.332;12.336;2022-12-24T12:20:15;12.03;;;3.67;;
19887;SDS011;10106;51.332;12.336;2022-12-24T12:30:59;5.10;;;2.40;;
19887;SDS011;10106;51.332;12.336;2022-12-24T12:36:50;11.20;;;3.30;;
19887;SDS011;10106;51.332;12.336;2022-12-24T12:39:28;4.93;;;2.80;;
19887;SDS011;10106;51.332;12.336;2022-12-24T12:50:28;19.80;;;4.30;;
19887;SDS011;10106;51.332;12.336;2022-12-24T12:55:48;7.40;;;2.67;;
19887;SDS011;10106;51.332;12.336;2022-12-24T12:58:26;9.57;;;3.00;;
19887;SDS011;10106;51.332;12.336;2022-12-24T13:00:58;10.63;;;3.53;;
19887;SDS011;10106;51.332;12.336;2022-12-24T13:03:39;8.60;;;2.77;;
19887;SDS011;10106;51.332;12.336;2022-12-24T13:17:51;6.47;;;2.53;;
19887;SDS011;10106;51.332;12.336;2022-12-24T13:20:27;11.27;;;3.77;;
19887;SDS011;10106;51.332;12.336;2022-12-24T13:23:00;13.93;;;4.53;;
19887;SDS011;10106;51.332;12.336;2022-12-24T13:25:41;10.37;;;4.00;;
19887;SDS011;10106;51.332;12.336;2022-12-24T13:30:50;386.20;;;241.67;;
19887;SDS011;10106;51.332;12.336;2022-12-24T13:36:02;559.33;;;251.60;;
19887;SDS011;10106;51.332;12.336;2022-12-24T13:41:36;619.20;;;245.23;;
19887;SDS011;10106;51.332;12.336;2022-12-24T13:46:53;661.33;;;238.63;;
19887;SDS011;10106;51.332;12.336;2022-12-24T14:02:45;707.33;;;281.60;;
19887;SDS011;10106;51.332;12.336;2022-12-24T14:05:24;672.97;;;254.40;;
19887;SDS011;10106;51.332;12.336;2022-12-24T14:08:13;672.70;;;248.57;;
19887;SDS011;10106;51.332;12.336;2022-12-24T14:11:09;667.20;;;237.23;;
19887;SDS011;10106;51.332;12.336;2022-12-24T14:18:29;665.80;;;243.50;;
19887;SDS011;10106;51.332;12.336;2022-12-24T14:20:58;668.47;;;234.10;;
19887;SDS011;10106;51.332;12.336;2022-12-24T14:26:26;674.57;;;254.87;;
19887;SDS011;10106;51.332;12.336;2022-12-24T14:31:21;672.33;;;233.30;;
19887;SDS011;10106;51.332;12.336;2022-12-24T14:33:47;664.57;;;218.00;;
19887;SDS011;10106;51.332;12.336;2022-12-24T14:36:14;678.57;;;242.20;;
19887;SDS011;10106;51.332;12.336;2022-12-24T14:38:45;672.33;;;237.57;;
19887;SDS011;10106;51.332;12.336;2022-12-24T14:53:06;660.87;;;229.10;;
19887;SDS011;10106;51.332;12.336;2022-12-24T14:55:41;655.87;;;206.77;;
19887;SDS011;10106;51.332;12.336;2022-12-24T15:00:48;377.27;;;160.83;;
19887;SDS011;10106;51.332;12.336;2022-12-24T15:03:16;456.10;;;181.77;;
19887;SDS011;10106;51.332;12.336;2022-12-24T15:05:43;463.70;;;179.40;;
19887;SDS011;10106;51.332;12.336;2022-12-24T15:08:15;399.90;;;174.70;;
19887;SDS011;10106;51.332;12.336;2022-12-24T15:10:44;146.00;;;130.33;;
19887;SDS011;10106;51.332;12.336;2022-12-24T15:16:13;141.90;;;126.40;;
19887;SDS011;10106;51.332;12.336;2022-12-24T15:18:48;78.50;;;71.70;;
19887;SDS011;10106;51.332;12.336;2022-12-24T15:21:27;64.87;;;58.73;;
19887;SDS011;10106;51.332;12.336;2022-12-24T15:23:58;80.20;;;72.77;;
19887;SDS011;10106;51.332;12.336;2022-12-24T15:26:27;26.30;;;20.83;;
19887;SDS011;10106;51.332;12.336;2022-12-24T15:28:54;13.57;;;3.63;;
19887;SDS011;10106;51.332;12.336;2022-12-24T15:31:22;10.77;;;3.80;;
19887;SDS011;10106;51.332;12.336;2022-12-24T15:33:50;4.10;;;2.60;;
19887;SDS011;10106;51.332;12.336;2022-12-24T15:36:23;7.60;;;2.53;;
19887;SDS011;10106;51.332;12.336;2022-12-24T15:38:51;7.73;;;2.77;;
19887;SDS011;10106;51.332;12.336;2022-12-24T15:41:20;4.20;;;2.10;;
19887;SDS011;10106;51.332;12.336;2022-12-24T15:43:52;8.00;;;2.90;;
19887;SDS011;10106;51.332;12.336;2022-12-24T15:46:26;5.13;;;2.20;;
19887;SDS011;10106;51.332;12.336;2022-12-24T15:48:54;4.43;;;3.40;;
19887;SDS011;10106;51.332;12.336;2022-12-24T15:51:29;8.13;;;3.10;;
19887;SDS011;10106;51.332;12.336;2022-12-24T15:54:00;4.10;;;2.50;;
19887;SDS011;10106;51.332;12.336;2022-12-24T16:01:42;9.60;;;2.00;;
19887;SDS011;10106;51.332;12.336;2022-12-24T16:04:13;6.40;;;2.27;;
19887;SDS011;10106;51.332;12.336;2022-12-24T16:06:50;17.07;;;2.30;;
19887;SDS011;10106;51.332;12.336;2022-12-24T16:12:00;3.55;;;1.83;;
19887;SDS011;10106;51.332;12.336;2022-12-24T16:14:28;7.77;;;2.43;;
19887;SDS011;10106;51.332;12.336;2022-12-24T16:16:55;5.30;;;2.07;;
19887;SDS011;10106;51.332;12.336;2022-12-24T16:22:02;12.37;;;2.53;;
19887;SDS011;10106;51.332;12.336;2022-12-24T16:24:48;8.30;;;1.90;;
19887;SDS011;10106;51.332;12.336;2022-12-24T16:27:16;11.50;;;2.50;;
19887;SDS011;10106;51.332;12.336;2022-12-24T16:29:42;4.50;;;2.27;;
19887;SDS011;10106;51.332;12.336;2022-12-24T16:34:55;1.90;;;1.60;;
19887;SDS011;10106;51.332;12.336;2022-12-24T16:37:20;6.20;;;2.53;;
19887;SDS011;10106;51.332;12.336;2022-12-24T16:39:46;2.83;;;2.20;;
19887;SDS011;10106;51.332;12.336;2022-12-24T16:42:12;3.43;;;2.50;;
19887;SDS011;10106;51.332;12.336;2022-12-24T16:44:56;3.47;;;2.37;;
19887;SDS011;10106;51.332;12.336;2022-12-24T16:47:23;9.27;;;2.67;;
19887;SDS011;10106;51.332;12.336;2022-12-24T16:49:51;24.47;;;2.87;;
19887;SDS011;10106;51.332;12.336;2022-12-24T16:52:20;4.40;;;1.77;;
19887;SDS011;10106;51.332;12.336;2022-12-24T16:54:49;4.50;;;2.50;;
19887;SDS011;10106;51.332;12.336;2022-12-24T16:57:16;6.43;;;2.30;;
19887;SDS011;10106;51.332;12.336;2022-12-24T16:59:42;2.33;;;2.10;;
19887;SDS011;10106;51.332;12.336;2022-12-24T17:02:09;7.00;;;2.47;;
19887;SDS011;10106;51.332;12.336;2022-12-24T17:04:38;4.87;;;2.57;;
19887;SDS011;10106;51.332;12.336;2022-12-24T17:07:04;12.20;;;3.40;;
19887;SDS011;10106;51.332;12.336;2022-12-24T17:09:30;11.63;;;5.87;;
19887;SDS011;10106;51.332;12.336;2022-12-24T17:11:56;10.80;;;3.33;;
19887;SDS011;10106;51.332;12.336;2022-12-24T17:14:22;23.13;;;10.43;;
19887;SDS011;10106;51.332;12.336;2022-12-24T17:16:47;15.17;;;8.67;;
19887;SDS011;10106;51.332;12.336;2022-12-24T17:19:13;9.80;;;4.87;;
19887;SDS011;10106;51.332;12.336;2022-12-24T17:21:39;20.27;;;9.67;;
19887;SDS011;10106;51.332;12.336;2022-12-24T17:24:05;10.17;;;5.07;;